Time;durP1;ratioP1;P1;durP2;ratioP2;P2;SDS_P1;SDS_P2;PMS_P1;PMS_P2;Temp;Humidity;BMP_temperature;BMP_pressure;BME280_temperature;BME280_humidity;BME280_pressure;Samples;Min_cycle;Max_cycle;Signal;HPM_P1;HPM_P2
2021/04/22 00:00:28;;;;;;;8.20;1.27;;;7.80;62.70;;;;;;3531217;40;20036;-83
2021/04/22 00:02:56;;;;;;;13.57;2.35;;;7.70;62.90;;;;;;3525312;40;20036;-85
2021/04/22 00:05:29;;;;;;;11.13;1.75;;;7.70;62.80;;;;;;3522884;40;20054;-84
2021/04/22 00:08:07;;;;;;;7.35;1.70;;;7.70;62.50;;;;;;3521552;40;20043;-83
2021/04/22 00:10:43;;;;;;;7.50;1.75;;;7.80;62.20;;;;;;3524602;40;20035;-84
2021/04/22 00:13:14;;;;;;;5.95;1.40;;;7.70;62.40;;;;;;3526336;40;20072;-83
2021/04/22 00:16:08;;;;;;;10.98;1.45;;;7.60;62.80;;;;;;3530696;40;20051;-83
2021/04/22 00:18:35;;;;;;;11.77;1.90;;;7.40;63.70;;;;;;3527436;40;20036;-83
2021/04/22 00:21:04;;;;;;;7.00;1.38;;;7.50;64.10;;;;;;3521220;40;20084;-85
2021/04/22 00:23:33;;;;;;;8.63;1.67;;;7.50;64.00;;;;;;3504415;41;20084;-84
2021/04/22 00:26:06;;;;;;;6.22;1.40;;;7.40;65.10;;;;;;3511692;41;20039;-86
2021/04/22 00:28:59;;;;;;;9.05;1.40;;;7.30;64.40;;;;;;3519368;41;20043;-83
2021/04/22 00:31:27;;;;;;;11.13;2.92;;;7.30;64.60;;;;;;3501327;40;20036;-85
2021/04/22 00:34:02;;;;;;;10.45;2.03;;;7.40;64.10;;;;;;3510876;41;20041;-83
2021/04/22 00:36:30;;;;;;;9.95;1.73;;;7.30;64.10;;;;;;3521279;41;20068;-82
2021/04/22 00:39:00;;;;;;;16.13;1.77;;;7.30;64.00;;;;;;3518446;40;20091;-85
2021/04/22 00:41:31;;;;;;;6.35;1.42;;;7.40;64.00;;;;;;3521048;41;20047;-86
2021/04/22 00:43:59;;;;;;;16.35;2.50;;;7.40;63.70;;;;;;3511860;41;20053;-84
2021/04/22 00:46:27;;;;;;;10.50;1.60;;;7.30;64.10;;;;;;3512702;41;20051;-86
2021/04/22 00:48:56;;;;;;;8.63;1.50;;;7.50;63.90;;;;;;3525519;40;20036;-85
2021/04/22 00:51:25;;;;;;;11.95;1.70;;;7.30;63.90;;;;;;3513762;41;20036;-85
2021/04/22 00:53:53;;;;;;;8.55;1.55;;;7.10;65.60;;;;;;3505741;41;20047;-84
2021/04/22 00:56:24;;;;;;;17.70;2.13;;;6.90;65.30;;;;;;3513634;40;20055;-83
2021/04/22 00:59:43;;;;;;;11.05;1.77;;;7.10;65.00;;;;;;3511049;41;20032;-84
2021/04/22 01:02:13;;;;;;;6.93;1.40;;;6.90;65.80;;;;;;3503676;41;20044;-84
2021/04/22 01:04:43;;;;;;;7.28;1.83;;;6.90;66.00;;;;;;3513322;41;20040;-85
2021/04/22 01:07:15;;;;;;;9.55;1.70;;;6.90;66.40;;;;;;3513326;41;20028;-84
2021/04/22 01:09:44;;;;;;;5.72;1.25;;;6.70;66.90;;;;;;3522114;41;20071;-87
2021/04/22 01:12:13;;;;;;;8.70;1.80;;;6.70;67.20;;;;;;3509173;41;20043;-82
2021/04/22 01:14:41;;;;;;;13.57;1.98;;;6.60;67.80;;;;;;3513746;41;20323;-85
2021/04/22 01:17:10;;;;;;;9.23;2.17;;;6.80;67.90;;;;;;3513501;41;20036;-85
2021/04/22 02:10:18;;;;;;;;;;;5.90;76.90;;;;;;3506115;41;20055;-86
2021/04/22 02:12:46;;;;;;;9.52;2.45;;;5.90;77.90;;;;;;3496818;41;19999;-84
2021/04/22 02:15:19;;;;;;;13.52;2.15;;;5.90;78.00;;;;;;3486134;41;20034;-86
2021/04/22 02:17:47;;;;;;;7.72;2.40;;;5.90;79.40;;;;;;3493740;41;20056;-87
2021/04/22 02:20:16;;;;;;;12.52;2.15;;;5.80;79.20;;;;;;3489766;41;20047;-84
2021/04/22 02:22:45;;;;;;;12.52;2.42;;;5.80;79.50;;;;;;3494211;41;20025;-84
2021/04/22 02:25:16;;;;;;;10.98;1.95;;;5.90;80.10;;;;;;3488100;41;20037;-85
2021/04/22 02:27:45;;;;;;;14.55;2.63;;;5.80;80.60;;;;;;3493110;41;20044;-85
2021/04/22 02:30:32;;;;;;;17.50;3.58;;;5.70;82.00;;;;;;3481752;41;20041;-86
2021/04/22 02:33:02;;;;;;;14.63;2.17;;;5.80;82.60;;;;;;3494604;41;20053;-86
2021/04/22 02:35:32;;;;;;;12.82;2.15;;;5.70;82.90;;;;;;3491078;41;20033;-84
2021/04/22 02:38:01;;;;;;;14.38;2.10;;;5.60;83.50;;;;;;3501455;41;20113;-85
2021/04/22 02:40:31;;;;;;;14.23;2.58;;;5.60;84.50;;;;;;3493417;41;20037;-84
2021/04/22 02:43:01;;;;;;;15.02;2.83;;;5.50;85.30;;;;;;3489648;41;20074;-86
2021/04/22 02:45:31;;;;;;;17.13;2.40;;;5.50;86.80;;;;;;3487270;41;20053;-83
2021/04/22 02:48:00;;;;;;;9.98;2.45;;;5.30;88.90;;;;;;3482686;41;20048;-86
2021/04/22 02:50:33;;;;;;;11.13;2.17;;;5.00;90.70;;;;;;3497560;41;20025;-85
2021/04/22 02:53:32;;;;;;;20.67;3.58;;;4.90;91.80;;;;;;3492281;41;20036;-84
2021/04/22 02:56:07;;;;;;;14.52;2.00;;;4.90;92.90;;;;;;3483102;41;20029;-84
2021/04/22 02:58:36;;;;;;;18.02;2.85;;;4.80;93.90;;;;;;3478453;41;20053;-85
2021/04/22 03:01:03;;;;;;;14.55;2.67;;;5.00;94.10;;;;;;3499774;41;20029;-85
2021/04/22 03:03:31;;;;;;;14.25;2.75;;;4.80;94.60;;;;;;3487780;41;20025;-88
2021/04/22 03:06:02;;;;;;;14.48;2.80;;;4.80;95.10;;;;;;3476975;41;20037;-84
2021/04/22 03:09:01;;;;;;;18.65;3.72;;;4.70;95.80;;;;;;3505394;41;20051;-84
2021/04/22 03:11:28;;;;;;;11.70;2.08;;;4.70;95.90;;;;;;3501944;41;20032;-83
2021/04/22 03:13:57;;;;;;;8.48;2.50;;;4.60;96.80;;;;;;3503069;41;20045;-83
2021/04/22 03:16:26;;;;;;;13.43;3.65;;;4.50;98.40;;;;;;3505575;41;20044;-84
2021/04/22 03:18:58;;;;;;;14.40;2.25;;;4.40;99.20;;;;;;3499121;41;20033;-84
2021/04/22 03:21:33;;;;;;;19.00;3.08;;;4.50;99.80;;;;;;3480107;41;20033;-81
2021/04/22 03:24:29;;;;;;;19.00;3.15;;;4.70;99.10;;;;;;3477827;41;20045;-83
2021/04/22 03:26:59;;;;;;;16.27;4.28;;;4.70;98.90;;;;;;3452223;41;20082;-82
2021/04/22 03:29:27;;;;;;;;;;;4.80;98.70;;;;;;3469945;41;20045;-84
2021/04/22 03:31:58;;;;;;;17.13;2.97;;;4.90;97.50;;;;;;3477201;41;19940;-83
2021/04/22 03:34:26;;;;;;;14.30;2.78;;;4.90;97.30;;;;;;3469273;41;20031;-85
2021/04/22 03:36:54;;;;;;;13.20;2.78;;;5.00;96.30;;;;;;3477955;41;20038;-86
2021/04/22 03:39:23;;;;;;;15.70;3.08;;;5.00;94.70;;;;;;3479317;41;20037;-85
2021/04/22 03:48:48;;;;;;;10.00;2.83;;;4.90;95.00;;;;;;3522836;41;20047;-85
2021/04/22 03:51:17;;;;;;;18.50;2.83;;;5.20;94.30;;;;;;3521379;41;20043;-88
2021/04/22 03:53:45;;;;;;;;;;;5.00;94.10;;;;;;3508471;41;20025;-87
2021/04/22 04:20:27;;;;;;;13.67;2.83;;;4.50;98.10;;;;;;5989652;23;20323;31
2021/04/22 04:22:55;;;;;;;16.45;3.00;;;4.50;97.80;;;;;;3476618;41;20051;-87
2021/04/22 04:25:25;;;;;;;21.20;3.35;;;4.40;98.40;;;;;;3493259;41;20061;-84
2021/04/22 04:27:53;;;;;;;17.73;4.22;;;4.40;98.10;;;;;;3482260;41;20045;-85
2021/04/22 04:30:22;;;;;;;13.43;3.63;;;4.50;98.40;;;;;;3480696;41;20038;-85
2021/04/22 04:32:50;;;;;;;16.90;3.10;;;4.90;97.30;;;;;;3478224;41;20030;-85
2021/04/22 04:35:18;;;;;;;;;;;5.00;95.90;;;;;;3487080;41;20041;-85
2021/04/22 04:37:47;;;;;;;19.58;3.22;;;5.10;95.90;;;;;;3492277;41;19943;-83
2021/04/22 04:40:20;;;;;;;17.87;2.87;;;5.10;95.40;;;;;;3475904;41;20034;-85
2021/04/22 04:42:48;;;;;;;8.52;2.63;;;5.00;95.10;;;;;;3477991;41;20037;-87
2021/04/22 04:45:18;;;;;;;20.63;2.87;;;4.80;95.40;;;;;;3468914;41;20042;-88
2021/04/22 04:47:46;;;;;;;12.68;3.75;;;4.90;95.50;;;;;;3486192;41;20038;-88
2021/04/22 04:50:23;;;;;;;12.27;3.13;;;4.80;95.70;;;;;;3477787;41;20041;-86
2021/04/22 04:52:59;;;;;;;23.55;3.47;;;4.90;95.60;;;;;;3469087;41;20042;-83
2021/04/22 04:55:28;;;;;;;18.55;3.47;;;5.20;94.40;;;;;;3492065;41;20030;-89
2021/04/22 04:57:56;;;;;;;16.83;2.90;;;5.20;93.60;;;;;;3477367;41;20333;-84
2021/04/22 05:00:24;;;;;;;9.25;2.53;;;5.40;93.10;;;;;;3473550;41;20042;-84
2021/04/22 05:02:53;;;;;;;23.13;5.32;;;5.40;92.80;;;;;;3476636;41;20041;-86
2021/04/22 05:05:22;;;;;;;14.38;3.00;;;5.40;92.30;;;;;;3475919;41;20394;-87
2021/04/22 05:07:50;;;;;;;19.23;3.85;;;5.50;91.90;;;;;;3477240;41;20033;-86
2021/04/22 05:10:45;;;;;;;15.23;2.63;;;5.70;91.20;;;;;;3477584;41;20044;-85
2021/04/22 05:13:15;;;;;;;17.00;3.40;;;5.60;90.80;;;;;;3480339;41;20066;-84
2021/04/22 05:15:43;;;;;;;17.33;3.45;;;5.50;91.30;;;;;;3484669;41;20033;-87
2021/04/22 05:18:11;;;;;;;17.60;3.38;;;5.50;91.00;;;;;;3476118;41;20038;-85
2021/04/22 05:20:51;;;;;;;10.65;2.08;;;5.50;90.90;;;;;;3469432;41;20082;-84
2021/04/22 05:23:20;;;;;;;13.25;2.97;;;5.70;90.90;;;;;;3470132;41;20056;-82
2021/04/22 05:25:49;;;;;;;11.63;2.75;;;5.60;90.60;;;;;;3467487;41;20081;-83
2021/04/22 05:28:28;;;;;;;9.35;2.67;;;5.60;90.60;;;;;;3483233;41;20048;-83
2021/04/22 05:31:21;;;;;;;11.40;3.17;;;5.60;90.50;;;;;;3484637;41;20037;-82
2021/04/22 05:33:49;;;;;;;16.65;3.47;;;5.50;90.60;;;;;;3477597;41;20049;-87
2021/04/22 05:36:22;;;;;;;19.88;3.20;;;5.60;90.60;;;;;;3485775;41;20072;-85
2021/04/22 05:38:50;;;;;;;9.82;3.00;;;5.60;90.40;;;;;;3464561;41;20079;-84
2021/04/22 05:41:21;;;;;;;15.23;2.97;;;5.90;89.60;;;;;;3457724;41;20030;-85
2021/04/22 05:43:49;;;;;;;17.15;3.28;;;6.10;88.50;;;;;;3462503;41;20046;-87
2021/04/22 05:46:19;;;;;;;9.47;3.17;;;6.10;87.60;;;;;;3464597;41;20071;-84
2021/04/22 05:49:04;;;;;;;11.63;3.17;;;6.10;88.10;;;;;;3471508;41;20039;-84
2021/04/22 06:01:21;;;;;;;12.93;3.20;;;6.40;85.50;;;;;;3494916;41;20042;-88
2021/04/22 06:03:49;;;;;;;10.52;3.88;;;6.30;85.40;;;;;;3492835;41;20037;-83
2021/04/22 06:06:19;;;;;;;15.02;3.08;;;6.40;85.10;;;;;;3478184;41;20045;-83
2021/04/22 06:08:47;;;;;;;14.10;3.03;;;6.50;84.50;;;;;;3488066;41;20062;-82
2021/04/22 06:11:16;;;;;;;15.18;3.75;;;6.70;84.40;;;;;;3472146;41;20066;-81
2021/04/22 06:13:44;;;;;;;;;;;6.90;83.90;;;;;;3480065;41;20057;-82
2021/04/22 06:16:13;;;;;;;16.23;3.17;;;6.90;82.30;;;;;;3477317;41;19951;-85
2021/04/22 06:19:04;;;;;;;16.20;3.13;;;6.90;82.20;;;;;;3476651;41;20105;-84
2021/04/22 06:21:35;;;;;;;15.63;3.05;;;6.90;82.80;;;;;;3489305;41;20033;-86
2021/04/22 06:24:05;;;;;;;15.35;3.22;;;6.90;81.40;;;;;;3482638;41;20034;-83
2021/04/22 06:26:33;;;;;;;14.68;3.85;;;6.70;82.90;;;;;;3473646;41;20037;-85
2021/04/22 06:29:04;;;;;;;12.93;2.92;;;6.80;82.90;;;;;;3482471;41;20049;-83
2021/04/22 06:31:33;;;;;;;15.57;2.75;;;6.80;82.50;;;;;;3467490;41;20042;-84
2021/04/22 06:34:06;;;;;;;11.98;3.38;;;6.80;82.80;;;;;;3476641;41;20044;-83
2021/04/22 06:36:34;;;;;;;11.52;2.67;;;6.80;83.30;;;;;;3484362;41;20038;-84
2021/04/22 06:39:03;;;;;;;18.15;3.20;;;6.80;83.00;;;;;;3485011;41;20128;-85
2021/04/22 06:41:35;;;;;;;22.63;4.00;;;6.90;83.00;;;;;;3484602;41;20041;-83
2021/04/22 06:44:04;;;;;;;17.55;4.60;;;7.10;81.80;;;;;;3491050;41;20041;-85
2021/04/22 06:46:47;;;;;;;;;;;7.10;81.00;;;;;;3484580;41;20037;-85
2021/04/22 06:49:16;;;;;;;11.55;3.10;;;7.00;82.10;;;;;;3491776;41;19952;-84
2021/04/22 06:51:44;;;;;;;10.45;2.83;;;7.00;82.30;;;;;;3476117;41;20057;-84
2021/04/22 06:54:37;;;;;;;29.38;4.85;;;6.90;82.50;;;;;;3468844;41;20066;-84
2021/04/22 06:57:06;;;;;;;16.60;2.88;;;6.90;83.00;;;;;;3492729;41;20052;-85
2021/04/22 06:59:38;;;;;;;11.88;2.90;;;6.90;82.30;;;;;;3494353;41;20065;-85
2021/04/22 07:02:06;;;;;;;15.52;3.17;;;6.80;82.80;;;;;;3505092;41;20041;-84
2021/04/22 07:04:35;;;;;;;14.13;3.78;;;6.90;82.60;;;;;;3501286;41;20033;-85
2021/04/22 07:07:04;;;;;;;15.35;3.30;;;6.90;82.80;;;;;;3484975;41;20066;-84
2021/04/22 07:09:35;;;;;;;10.38;2.75;;;6.90;82.10;;;;;;3481604;41;20037;-83
2021/04/22 07:12:05;;;;;;;26.05;4.30;;;6.90;82.00;;;;;;3494297;41;20054;-82
2021/04/22 07:14:36;;;;;;;10.63;2.78;;;7.10;81.80;;;;;;3478204;41;20036;-84
2021/04/22 07:17:05;;;;;;;15.82;3.22;;;7.30;81.60;;;;;;3485757;41;20085;-84
2021/04/22 07:19:38;;;;;;;10.60;2.30;;;7.50;80.20;;;;;;3481810;41;20082;-83
2021/04/22 07:22:08;;;;;;;13.30;3.00;;;7.70;77.60;;;;;;3486295;41;20107;-80
2021/04/22 07:24:38;;;;;;;12.77;2.42;;;7.70;78.10;;;;;;3494757;41;20094;-82
2021/04/22 07:27:23;;;;;;;13.57;2.67;;;8.00;76.60;;;;;;3486114;41;20045;-84
2021/04/22 07:29:51;;;;;;;17.60;2.90;;;8.40;74.20;;;;;;3492633;41;20029;-85
2021/04/22 07:32:20;;;;;;;;;;;8.60;73.20;;;;;;3497169;41;20033;-87
2021/04/22 07:34:49;;;;;;;9.05;2.90;;;8.70;72.80;;;;;;3504133;41;19944;-85
2021/04/22 07:37:18;;;;;;;16.98;3.25;;;8.70;71.20;;;;;;3495939;41;20037;-87
2021/04/22 07:39:46;;;;;;;;;;;8.80;70.10;;;;;;3488732;41;20067;-84
2021/04/22 07:42:19;;;;;;;11.10;2.03;;;8.90;69.60;;;;;;3479693;41;19976;-88
2021/04/22 07:44:47;;;;;;;10.55;2.40;;;9.10;63.30;;;;;;3486503;41;20037;-83
2021/04/22 07:47:20;;;;;;;7.88;2.17;;;8.80;62.10;;;;;;3494305;41;20033;-87
2021/04/22 07:49:58;;;;;;;13.77;2.97;;;9.00;62.40;;;;;;3476547;41;20053;-84
2021/04/22 07:53:18;;;;;;;10.10;2.10;;;9.20;61.10;;;;;;3475965;41;20062;-85
2021/04/22 07:55:46;;;;;;;13.30;2.08;;;9.30;59.90;;;;;;3474521;41;20053;-88
2021/04/22 07:58:16;;;;;;;20.17;2.97;;;9.20;59.30;;;;;;3472795;41;20066;-89
2021/04/22 08:00:46;;;;;;;12.68;2.33;;;9.10;59.60;;;;;;3484291;41;20036;-89
2021/04/22 08:03:21;;;;;;;10.52;2.35;;;9.10;59.10;;;;;;3476775;41;20048;-88
2021/04/22 08:20:17;;;;;;;14.00;2.22;;;9.40;57.80;;;;;;3506925;41;20039;-89
2021/04/22 08:22:46;;;;;;;14.60;2.55;;;9.20;57.90;;;;;;3500083;41;20040;-90
2021/04/22 08:25:19;;;;;;;18.63;3.58;;;9.30;58.40;;;;;;3495641;41;20044;-88
2021/04/22 08:27:48;;;;;;;10.88;2.38;;;9.60;58.60;;;;;;3496627;41;20037;-88
2021/04/22 08:31:12;;;;;;;10.95;2.70;;;9.80;58.10;;;;;;3503337;41;20056;-86
2021/04/22 08:33:47;;;;;;;11.85;2.25;;;10.00;58.20;;;;;;3514778;41;20032;-88
2021/04/22 08:36:27;;;;;;;13.52;2.30;;;10.30;56.20;;;;;;3499502;41;20043;-87
2021/04/22 08:51:17;;;;;;;13.45;2.40;;;11.30;53.00;;;;;;4990360;23;20049;-86
2021/04/22 08:53:48;;;;;;;11.15;2.45;;;11.00;52.10;;;;;;3507048;41;20054;-86
2021/04/22 08:56:21;;;;;;;9.20;2.55;;;10.80;53.10;;;;;;3509492;41;20036;-88
2021/04/22 08:58:50;;;;;;;17.70;3.17;;;10.70;53.50;;;;;;3506499;41;20040;-85
2021/04/22 09:01:19;;;;;;;;;;;10.70;54.00;;;;;;3523040;41;20031;-89
2021/04/22 09:03:50;;;;;;;9.90;2.42;;;10.70;53.80;;;;;;3507024;41;19945;-88
2021/04/22 09:06:19;;;;;;;8.00;2.60;;;10.80;54.50;;;;;;3514535;41;20036;-85
2021/04/22 09:13:03;;;;;;;13.73;2.70;;;10.60;54.40;;;;;;3523649;41;20031;-88
2021/04/22 09:15:38;;;;;;;8.07;2.05;;;10.40;54.70;;;;;;3523523;41;20313;-86
2021/04/22 09:18:09;;;;;;;12.23;2.60;;;10.30;54.60;;;;;;3514640;41;20036;-87
2021/04/22 09:28:10;;;;;;;20.25;2.65;;;11.10;52.30;;;;;;3522978;41;20039;-85
2021/04/22 09:30:45;;;;;;;10.68;2.25;;;11.50;50.60;;;;;;3514585;41;20032;-87
2021/04/22 09:34:07;;;;;;;10.50;2.55;;;11.30;50.70;;;;;;3494512;41;20025;-86
2021/04/22 09:36:47;;;;;;;11.50;2.65;;;11.10;51.20;;;;;;3487454;41;20069;-88
2021/04/22 09:39:28;;;;;;;9.90;1.90;;;11.20;51.50;;;;;;3486267;41;20029;-90
2021/04/22 09:54:31;;;;;;;8.27;1.98;;;11.20;49.50;;;;;;3473231;41;20071;-84
2021/04/22 09:57:02;;;;;;;15.75;2.45;;;11.70;49.50;;;;;;3466149;41;20058;-86
2021/04/22 09:59:30;;;;;;;11.07;2.42;;;11.40;49.10;;;;;;3466867;41;20125;-84
2021/04/22 10:33:20;;;;;;;8.90;2.15;;;12.30;47.70;;;;;;5171729;23;20031;-84
2021/04/22 10:35:51;;;;;;;6.22;2.00;;;13.60;46.10;;;;;;3492871;41;20040;-92
2021/04/22 10:38:22;;;;;;;13.20;2.33;;;13.70;45.30;;;;;;3495241;41;20065;-85
2021/04/22 10:40:53;;;;;;;8.18;2.10;;;14.20;45.60;;;;;;3490280;41;20344;-87
2021/04/22 10:43:22;;;;;;;9.38;2.33;;;15.50;43.60;;;;;;3476865;41;20105;-86
2021/04/22 10:45:56;;;;;;;10.90;2.17;;;16.10;41.30;;;;;;3473193;41;20095;-88
2021/04/22 10:51:31;;;;;;;6.82;2.60;;;16.60;40.00;;;;;;3509985;41;20037;-90
2021/04/22 10:54:03;;;;;;;7.47;1.75;;;17.80;38.00;;;;;;3497982;41;20089;-87
2021/04/22 10:56:31;;;;;;;9.25;1.83;;;18.60;36.80;;;;;;3491510;41;20089;-87
2021/04/22 10:58:59;;;;;;;12.43;2.67;;;19.00;35.90;;;;;;3489600;41;20069;-87
2021/04/22 11:01:37;;;;;;;12.10;2.25;;;18.30;36.80;;;;;;3486334;41;20072;-88
2021/04/22 11:04:08;;;;;;;9.88;2.30;;;18.00;37.30;;;;;;3501841;41;20053;-87
2021/04/22 11:06:39;;;;;;;15.80;2.42;;;17.90;37.80;;;;;;3512192;41;20076;-87
2021/04/22 11:09:21;;;;;;;11.38;2.83;;;18.00;38.30;;;;;;3499167;41;20081;-87
2021/04/22 11:11:56;;;;;;;9.35;2.38;;;18.20;37.40;;;;;;3488845;41;20062;-87
2021/04/22 11:14:35;;;;;;;12.52;2.53;;;17.50;38.00;;;;;;3493981;41;20071;-85
2021/04/22 11:17:05;;;;;;;15.23;2.30;;;16.70;39.30;;;;;;3496662;41;20060;-86
2021/04/22 11:19:37;;;;;;;12.07;3.05;;;17.00;39.20;;;;;;3485723;41;20065;-84
2021/04/22 11:22:13;;;;;;;8.48;2.72;;;18.30;37.50;;;;;;3492914;41;20159;-85
2021/04/22 11:24:43;;;;;;;13.88;2.75;;;19.20;35.80;;;;;;3491592;41;20044;-84
2021/04/22 11:27:13;;;;;;;6.00;2.10;;;18.70;36.00;;;;;;3489450;41;20597;-85
2021/04/22 11:29:45;;;;;;;8.02;2.17;;;17.70;36.80;;;;;;3489641;41;20044;-87
2021/04/22 11:32:39;;;;;;;9.48;2.53;;;18.10;36.50;;;;;;3496926;41;20112;-86
2021/04/22 11:35:15;;;;;;;11.80;2.83;;;18.90;35.50;;;;;;3467878;41;20339;-84
2021/04/22 11:37:46;;;;;;;11.65;2.25;;;20.00;34.20;;;;;;3488322;41;20084;-86
2021/04/22 11:40:17;;;;;;;9.23;2.58;;;18.80;33.70;;;;;;3474721;41;20037;-85
2021/04/22 11:42:49;;;;;;;15.30;2.88;;;19.90;33.80;;;;;;3484974;41;20072;-84
2021/04/22 11:45:24;;;;;;;10.35;1.98;;;21.00;31.70;;;;;;3483940;41;20375;-86
2021/04/22 11:47:56;;;;;;;12.75;2.17;;;20.70;31.50;;;;;;3484103;41;20075;-86
2021/04/22 11:50:27;;;;;;;7.93;2.38;;;20.50;31.70;;;;;;3493594;41;20096;-82
2021/04/22 11:52:59;;;;;;;8.45;2.83;;;21.30;31.30;;;;;;3477368;41;20065;-82
2021/04/22 11:55:29;;;;;;;10.73;2.38;;;21.00;31.60;;;;;;3486729;41;20060;-86
2021/04/22 11:58:01;;;;;;;10.88;2.17;;;18.50;34.80;;;;;;3503931;41;20036;-87
2021/04/22 12:00:32;;;;;;;14.20;2.58;;;17.70;37.40;;;;;;3496454;41;20081;-85
2021/04/22 12:03:05;;;;;;;9.32;2.42;;;19.40;36.00;;;;;;3482435;41;20089;-84
2021/04/22 12:05:34;;;;;;;15.07;2.95;;;20.50;34.50;;;;;;3475501;41;20086;-85
2021/04/22 12:08:08;;;;;;;10.77;2.45;;;20.80;33.50;;;;;;3474504;41;20153;-83
2021/04/22 12:10:52;;;;;;;11.02;2.70;;;20.00;34.20;;;;;;3483475;41;20093;-84
2021/04/22 12:13:34;;;;;;;9.70;2.35;;;20.30;34.20;;;;;;3474780;41;20069;-83
2021/04/22 12:16:12;;;;;;;8.27;2.35;;;21.80;32.80;;;;;;3478223;41;20513;-84
2021/04/22 12:18:47;;;;;;;11.77;2.38;;;22.30;32.00;;;;;;3475114;41;20392;-84
2021/04/22 12:21:20;;;;;;;15.25;2.50;;;23.70;30.70;;;;;;3465561;41;20033;-83
2021/04/22 12:23:54;;;;;;;11.07;2.97;;;24.00;29.80;;;;;;3473399;41;20079;-84
2021/04/22 12:26:28;;;;;;;10.82;2.40;;;23.10;30.20;;;;;;3474413;41;20060;-89
2021/04/22 12:29:00;;;;;;;8.13;2.47;;;22.80;29.40;;;;;;3484073;41;20072;-85
2021/04/22 12:31:35;;;;;;;10.73;2.50;;;22.30;30.70;;;;;;3495271;41;20080;-85
2021/04/22 12:34:09;;;;;;;9.77;2.13;;;21.90;30.60;;;;;;3497740;41;20097;-85
2021/04/22 12:36:41;;;;;;;8.45;2.65;;;20.90;31.60;;;;;;3489234;41;20061;-88
2021/04/22 12:39:23;;;;;;;11.02;2.40;;;20.80;31.90;;;;;;3499117;41;20149;-86
2021/04/22 12:42:06;;;;;;;7.40;2.22;;;21.00;30.90;;;;;;3493409;41;20048;-86
2021/04/22 12:44:36;;;;;;;13.48;2.80;;;19.40;33.30;;;;;;3503205;41;20041;-86
2021/04/22 12:47:08;;;;;;;11.13;2.30;;;19.40;34.10;;;;;;3501343;41;20044;-85
2021/04/22 12:49:49;;;;;;;9.77;2.17;;;20.90;32.80;;;;;;3483024;41;20061;-86
2021/04/22 12:52:30;;;;;;;6.85;1.95;;;21.70;30.70;;;;;;3479328;41;20061;-85
2021/04/22 12:55:02;;;;;;;9.90;2.42;;;21.60;30.60;;;;;;3504677;41;20071;-87
2021/04/22 12:57:30;;;;;;;8.40;2.10;;;19.70;32.70;;;;;;3486096;41;20047;-83
2021/04/22 12:59:58;;;;;;;16.92;4.15;;;20.00;33.40;;;;;;3490624;41;20144;-83
2021/04/22 13:02:31;;;;;;;12.30;2.55;;;21.10;31.90;;;;;;3491225;41;20097;-84
2021/04/22 13:05:01;;;;;;;11.57;2.60;;;21.60;31.60;;;;;;3496284;41;20405;-84
2021/04/22 13:07:35;;;;;;;7.72;2.10;;;21.80;30.90;;;;;;3496402;41;20060;-83
2021/04/22 13:10:13;;;;;;;6.82;2.55;;;23.50;29.70;;;;;;3494463;41;20088;-84
2021/04/22 13:12:43;;;;;;;7.85;2.13;;;22.70;29.10;;;;;;3479453;41;20094;-85
2021/04/22 13:15:15;;;;;;;6.55;2.28;;;21.60;30.60;;;;;;3495309;41;20491;-86
2021/04/22 13:17:43;;;;;;;10.90;2.28;;;20.00;32.10;;;;;;3497560;41;20080;-85
2021/04/22 13:20:26;;;;;;;9.67;2.63;;;18.50;34.10;;;;;;3494512;41;20076;-84
2021/04/22 13:22:57;;;;;;;11.82;2.65;;;17.30;36.50;;;;;;3490302;41;20092;-86
2021/04/22 13:25:30;;;;;;;11.57;2.42;;;16.80;37.90;;;;;;3488501;41;20061;-85
2021/04/22 13:28:20;;;;;;;10.57;2.22;;;18.60;36.20;;;;;;3494406;41;20076;-86
2021/04/22 13:30:55;;;;;;;6.82;1.75;;;20.90;32.60;;;;;;3483494;41;20088;-83
2021/04/22 13:33:27;;;;;;;7.43;2.40;;;22.80;29.70;;;;;;3495022;41;20077;-85
2021/04/22 13:36:05;;;;;;;7.32;2.47;;;22.40;28.70;;;;;;3487513;41;20057;-90
2021/04/22 13:39:09;;;;;;;7.35;1.98;;;19.80;31.00;;;;;;3501794;41;20065;-86
2021/04/22 13:41:48;;;;;;;9.57;2.25;;;18.10;33.90;;;;;;3486451;41;20211;-87
2021/04/22 13:44:16;;;;;;;13.52;2.53;;;18.90;34.20;;;;;;3488104;41;20110;-87
2021/04/22 13:47:03;;;;;;;9.50;2.80;;;21.10;32.40;;;;;;3488021;41;20085;-86
2021/04/22 13:49:38;;;;;;;9.60;2.83;;;22.10;31.10;;;;;;3495498;41;20081;-87
2021/04/22 13:52:09;;;;;;;7.07;2.88;;;21.20;31.70;;;;;;3500171;41;20064;-89
2021/04/22 13:54:38;;;;;;;10.45;2.40;;;20.20;32.30;;;;;;3496494;41;20077;-88
2021/04/22 13:57:11;;;;;;;10.18;3.05;;;19.20;32.90;;;;;;3489656;41;20085;-87
2021/04/22 13:59:46;;;;;;;16.52;2.75;;;19.90;33.10;;;;;;3493158;41;20424;-87
2021/04/22 14:02:22;;;;;;;12.93;2.65;;;19.70;32.40;;;;;;3492028;41;20558;-86
2021/04/22 14:05:06;;;;;;;8.57;2.33;;;18.30;34.70;;;;;;3495529;41;20068;-87
2021/04/22 14:07:53;;;;;;;7.53;2.28;;;17.50;35.60;;;;;;3513992;41;20048;-87
2021/04/22 14:16:08;;;;;;;7.82;2.45;;;15.40;38.90;;;;;;3525779;40;20040;-86
2021/04/22 14:18:36;;;;;;;11.90;2.80;;;15.60;39.20;;;;;;3513529;40;20036;-87
2021/04/22 14:21:15;;;;;;;13.23;2.60;;;15.90;38.80;;;;;;3505462;41;20061;-88
2021/04/22 14:26:50;;;;;;;7.97;2.00;;;16.50;38.20;;;;;;3504772;41;20040;-87
2021/04/22 14:32:25;;;;;;;5.80;2.45;;;15.10;39.70;;;;;;3593138;23;20064;-89
2021/04/22 14:41:17;;;;;;;7.32;2.40;;;13.90;42.70;;;;;;3954668;23;20053;-91
2021/04/22 14:44:18;;;;;;;12.15;2.58;;;14.00;42.40;;;;;;3724315;23;20511;-93
2021/04/22 14:46:49;;;;;;;12.25;2.00;;;14.50;41.70;;;;;;3604210;23;20043;-90
2021/04/22 14:55:39;;;;;;;11.60;2.65;;;14.60;41.50;;;;;;3532309;40;20032;-85
2021/04/22 15:00:59;;;;;;;8.02;1.88;;;14.40;42.10;;;;;;3521824;40;20063;-85
2021/04/22 15:06:13;;;;;;;15.20;2.17;;;14.10;42.60;;;;;;3505281;41;20044;-86
2021/04/22 15:08:43;;;;;;;15.15;2.42;;;14.20;42.60;;;;;;3523143;40;20047;-86
2021/04/22 15:11:19;;;;;;;8.93;2.10;;;14.30;42.20;;;;;;3501433;40;20272;-84
2021/04/22 15:13:49;;;;;;;14.10;2.50;;;14.10;42.40;;;;;;3500626;40;20088;-80
2021/04/22 15:16:17;;;;;;;15.80;2.70;;;13.90;42.80;;;;;;3507633;40;20127;-82
2021/04/22 15:18:49;;;;;;;6.68;2.20;;;13.60;43.40;;;;;;3530278;40;20060;-84
2021/04/22 15:21:25;;;;;;;10.55;2.60;;;13.30;44.10;;;;;;3517319;40;20047;-86
2021/04/22 15:23:53;;;;;;;13.13;2.88;;;13.30;44.70;;;;;;3517239;40;20040;-85
2021/04/22 15:26:24;;;;;;;8.52;2.50;;;13.20;44.70;;;;;;3516447;40;20039;-84
2021/04/22 15:28:57;;;;;;;12.27;2.90;;;13.00;45.20;;;;;;3502460;41;20047;-83
2021/04/22 15:31:29;;;;;;;16.63;2.90;;;13.00;45.40;;;;;;3505451;41;20056;-84
2021/04/22 15:34:25;;;;;;;11.07;2.17;;;12.90;45.90;;;;;;3513800;41;20041;-85
2021/04/22 15:37:16;;;;;;;13.93;2.90;;;12.50;46.60;;;;;;3502730;41;20132;-85
2021/04/22 15:39:46;;;;;;;15.75;2.58;;;12.30;47.50;;;;;;3508293;41;20042;-89
2021/04/22 15:42:40;;;;;;;13.40;2.55;;;12.30;46.80;;;;;;3498860;41;20061;-88
2021/04/22 15:45:11;;;;;;;12.18;2.38;;;12.30;47.10;;;;;;3513683;41;20037;-84
2021/04/22 15:48:07;;;;;;;10.18;2.30;;;12.40;47.10;;;;;;3505864;41;20037;-85
2021/04/22 15:50:46;;;;;;;11.32;2.40;;;12.40;46.70;;;;;;3505077;41;20044;-84
2021/04/22 15:53:15;;;;;;;9.30;2.22;;;12.40;47.60;;;;;;3514815;41;20048;-83
2021/04/22 15:55:42;;;;;;;9.20;2.33;;;12.40;47.30;;;;;;3504175;41;20040;-83
2021/04/22 15:58:16;;;;;;;10.43;2.72;;;12.40;47.20;;;;;;3512970;41;20063;-83
2021/04/22 16:00:55;;;;;;;10.57;2.38;;;12.40;46.90;;;;;;3513522;41;20051;-85
2021/04/22 16:03:28;;;;;;;13.35;2.70;;;12.30;47.10;;;;;;3513711;40;20033;-86
2021/04/22 16:06:39;;;;;;;10.60;2.72;;;12.30;47.20;;;;;;3515329;40;20040;-88
2021/04/22 16:09:07;;;;;;;12.68;2.10;;;12.20;47.70;;;;;;3513886;41;20040;-87
2021/04/22 16:15:16;;;;;;;16.00;2.40;;;12.30;47.40;;;;;;3498728;41;20036;-87
2021/04/22 16:17:45;;;;;;;13.32;2.90;;;12.20;47.50;;;;;;3505248;41;20059;-87
2021/04/22 16:20:35;;;;;;;10.43;2.67;;;12.10;47.80;;;;;;3488651;41;20046;-86
2021/04/22 16:23:07;;;;;;;9.55;2.22;;;12.10;47.50;;;;;;3513136;41;20037;-88
2021/04/22 16:25:44;;;;;;;18.45;2.47;;;12.00;47.70;;;;;;3505327;41;20041;-87
2021/04/22 16:28:17;;;;;;;10.15;2.58;;;12.00;47.70;;;;;;3505674;40;20051;-88
2021/04/22 16:30:46;;;;;;;13.98;2.25;;;12.00;47.90;;;;;;3497227;41;20059;-86
2021/04/22 16:33:16;;;;;;;11.40;3.40;;;12.00;48.10;;;;;;3505026;41;20036;-84
2021/04/22 16:35:45;;;;;;;8.43;1.90;;;11.90;48.50;;;;;;3496560;41;20036;-86
2021/04/22 16:38:15;;;;;;;7.70;2.03;;;11.90;48.60;;;;;;3505185;41;20033;-85
2021/04/22 16:40:43;;;;;;;16.55;2.55;;;11.90;48.80;;;;;;3505569;41;20025;-85
2021/04/22 16:43:15;;;;;;;16.17;3.13;;;12.00;48.60;;;;;;3512722;41;20048;-86
2021/04/22 16:45:46;;;;;;;11.43;2.78;;;12.00;48.80;;;;;;3509766;41;20045;-85
2021/04/22 16:48:39;;;;;;;10.60;2.65;;;12.00;48.90;;;;;;3506996;40;20044;-83
2021/04/22 16:51:10;;;;;;;9.55;2.30;;;12.00;48.70;;;;;;3498632;41;20044;-82